sensor_id;sensor_type;location;lat;lon;timestamp;temperature;humidity
3406;DHT22;10008;48.682;9.016;2023-07-22T00:01:25;14.60;99.90
3406;DHT22;10008;48.682;9.016;2023-07-22T00:03:51;14.50;99.90
3406;DHT22;10008;48.682;9.016;2023-07-22T00:06:17;14.40;99.90
3406;DHT22;10008;48.682;9.016;2023-07-22T00:08:43;14.50;99.90
3406;DHT22;10008;48.682;9.016;2023-07-22T00:11:08;14.50;99.90
3406;DHT22;10008;48.682;9.016;2023-07-22T00:13:35;14.40;99.90
3406;DHT22;10008;48.682;9.016;2023-07-22T00:16:01;14.30;99.90
3406;DHT22;10008;48.682;9.016;2023-07-22T00:18:30;13.40;99.90
3406;DHT22;10008;48.682;9.016;2023-07-22T00:20:56;14.20;99.90
3406;DHT22;10008;48.682;9.016;2023-07-22T00:23:22;14.20;99.90
3406;DHT22;10008;48.682;9.016;2023-07-22T00:25:48;14.30;99.90
3406;DHT22;10008;48.682;9.016;2023-07-22T00:28:14;14.30;99.90
3406;DHT22;10008;48.682;9.016;2023-07-22T00:30:40;14.20;99.90
3406;DHT22;10008;48.682;9.016;2023-07-22T00:33:07;14.20;99.90
3406;DHT22;10008;48.682;9.016;2023-07-22T00:35:33;14.20;99.90
3406;DHT22;10008;48.682;9.016;2023-07-22T00:38:01;14.20;99.90
3406;DHT22;10008;48.682;9.016;2023-07-22T00:40:28;14.20;99.90
3406;DHT22;10008;48.682;9.016;2023-07-22T00:42:56;14.20;99.90
3406;DHT22;10008;48.682;9.016;2023-07-22T00:45:21;14.20;99.90
3406;DHT22;10008;48.682;9.016;2023-07-22T00:47:48;14.90;99.90
3406;DHT22;10008;48.682;9.016;2023-07-22T00:50:14;14.20;99.90
3406;DHT22;10008;48.682;9.016;2023-07-22T00:52:40;14.20;99.90
3406;DHT22;10008;48.682;9.016;2023-07-22T00:55:06;14.20;99.90
3406;DHT22;10008;48.682;9.016;2023-07-22T00:57:33;14.20;99.90
3406;DHT22;10008;48.682;9.016;2023-07-22T00:59:59;14.20;99.90
3406;DHT22;10008;48.682;9.016;2023-07-22T01:02:25;14.20;99.90
3406;DHT22;10008;48.682;9.016;2023-07-22T01:04:51;14.20;99.90
3406;DHT22;10008;48.682;9.016;2023-07-22T01:07:18;14.20;99.90
3406;DHT22;10008;48.682;9.016;2023-07-22T01:09:44;14.20;99.90
3406;DHT22;10008;48.682;9.016;2023-07-22T01:12:11;14.20;99.90
3406;DHT22;10008;48.682;9.016;2023-07-22T01:14:40;14.20;99.90
3406;DHT22;10008;48.682;9.016;2023-07-22T01:17:08;14.20;99.90
3406;DHT22;10008;48.682;9.016;2023-07-22T01:19:34;14.20;99.90
3406;DHT22;10008;48.682;9.016;2023-07-22T01:22:05;14.20;99.90
3406;DHT22;10008;48.682;9.016;2023-07-22T01:24:33;14.30;99.90
3406;DHT22;10008;48.682;9.016;2023-07-22T01:26:59;14.30;99.90
3406;DHT22;10008;48.682;9.016;2023-07-22T01:29:25;14.30;99.90
3406;DHT22;10008;48.682;9.016;2023-07-22T01:31:53;14.20;99.90
3406;DHT22;10008;48.682;9.016;2023-07-22T01:34:20;14.20;99.90
3406;DHT22;10008;48.682;9.016;2023-07-22T01:36:47;14.20;99.90
3406;DHT22;10008;48.682;9.016;2023-07-22T01:39:14;14.10;99.90
3406;DHT22;10008;48.682;9.016;2023-07-22T01:41:40;14.10;99.90
3406;DHT22;10008;48.682;9.016;2023-07-22T01:44:06;14.10;99.90
3406;DHT22;10008;48.682;9.016;2023-07-22T01:46:31;14.00;99.90
3406;DHT22;10008;48.682;9.016;2023-07-22T01:48:57;14.10;99.90
3406;DHT22;10008;48.682;9.016;2023-07-22T01:51:23;14.10;99.90
3406;DHT22;10008;48.682;9.016;2023-07-22T01:53:49;14.10;99.90
3406;DHT22;10008;48.682;9.016;2023-07-22T01:56:16;14.10;99.90
3406;DHT22;10008;48.682;9.016;2023-07-22T01:58:42;14.10;99.90
3406;DHT22;10008;48.682;9.016;2023-07-22T02:01:08;14.00;99.90
3406;DHT22;10008;48.682;9.016;2023-07-22T02:03:34;14.00;99.90
3406;DHT22;10008;48.682;9.016;2023-07-22T02:06:04;13.90;99.90
3406;DHT22;10008;48.682;9.016;2023-07-22T02:08:30;13.80;99.90
3406;DHT22;10008;48.682;9.016;2023-07-22T02:11:05;13.80;99.90
3406;DHT22;10008;48.682;9.016;2023-07-22T02:13:32;13.80;99.90
3406;DHT22;10008;48.682;9.016;2023-07-22T02:15:58;13.80;99.90
3406;DHT22;10008;48.682;9.016;2023-07-22T02:18:24;13.80;99.90
3406;DHT22;10008;48.682;9.016;2023-07-22T02:20:50;13.80;99.90
3406;DHT22;10008;48.682;9.016;2023-07-22T02:23:16;13.80;99.90
3406;DHT22;10008;48.682;9.016;2023-07-22T02:25:42;13.80;99.90
3406;DHT22;10008;48.682;9.016;2023-07-22T02:28:07;13.70;99.90
3406;DHT22;10008;48.682;9.016;2023-07-22T02:30:36;13.70;99.90
3406;DHT22;10008;48.682;9.016;2023-07-22T02:33:04;13.70;99.90
3406;DHT22;10008;48.682;9.016;2023-07-22T02:35:30;13.70;99.90
3406;DHT22;10008;48.682;9.016;2023-07-22T02:37:57;13.80;99.90
3406;DHT22;10008;48.682;9.016;2023-07-22T02:40:23;13.70;99.90
3406;DHT22;10008;48.682;9.016;2023-07-22T02:42:48;13.80;99.90
3406;DHT22;10008;48.682;9.016;2023-07-22T02:45:14;13.70;99.90
3406;DHT22;10008;48.682;9.016;2023-07-22T02:47:40;13.70;99.90
3406;DHT22;10008;48.682;9.016;2023-07-22T02:50:06;13.70;99.90
3406;DHT22;10008;48.682;9.016;2023-07-22T02:52:32;13.60;99.90
3406;DHT22;10008;48.682;9.016;2023-07-22T02:55:15;13.70;99.90
3406;DHT22;10008;48.682;9.016;2023-07-22T02:57:46;13.50;99.90
3406;DHT22;10008;48.682;9.016;2023-07-22T03:00:13;13.60;99.90
3406;DHT22;10008;48.682;9.016;2023-07-22T03:02:40;13.60;99.90
3406;DHT22;10008;48.682;9.016;2023-07-22T03:05:07;13.50;99.90
3406;DHT22;10008;48.682;9.016;2023-07-22T03:07:37;13.50;99.90
3406;DHT22;10008;48.682;9.016;2023-07-22T03:10:07;13.60;99.90
3406;DHT22;10008;48.682;9.016;2023-07-22T03:12:34;13.60;99.90
3406;DHT22;10008;48.682;9.016;2023-07-22T03:15:01;13.50;99.90
3406;DHT22;10008;48.682;9.016;2023-07-22T03:17:27;13.50;99.90
3406;DHT22;10008;48.682;9.016;2023-07-22T03:19:53;13.50;99.90
3406;DHT22;10008;48.682;9.016;2023-07-22T03:22:18;13.50;99.90
3406;DHT22;10008;48.682;9.016;2023-07-22T03:24:45;13.50;99.90
3406;DHT22;10008;48.682;9.016;2023-07-22T03:27:11;13.50;99.90
3406;DHT22;10008;48.682;9.016;2023-07-22T03:29:38;13.40;99.90
3406;DHT22;10008;48.682;9.016;2023-07-22T03:32:04;13.40;99.90
3406;DHT22;10008;48.682;9.016;2023-07-22T03:34:31;13.40;99.90
3406;DHT22;10008;48.682;9.016;2023-07-22T03:36:57;13.40;99.90
3406;DHT22;10008;48.682;9.016;2023-07-22T03:39:24;13.40;99.90
3406;DHT22;10008;48.682;9.016;2023-07-22T03:41:50;13.50;99.90
3406;DHT22;10008;48.682;9.016;2023-07-22T03:44:16;13.40;99.90
3406;DHT22;10008;48.682;9.016;2023-07-22T03:46:41;13.40;99.90
3406;DHT22;10008;48.682;9.016;2023-07-22T03:49:07;13.40;99.90
3406;DHT22;10008;48.682;9.016;2023-07-22T03:51:33;13.40;99.90
3406;DHT22;10008;48.682;9.016;2023-07-22T03:53:59;13.40;99.90
3406;DHT22;10008;48.682;9.016;2023-07-22T03:56:26;13.40;99.90
3406;DHT22;10008;48.682;9.016;2023-07-22T03:58:52;13.30;99.90
3406;DHT22;10008;48.682;9.016;2023-07-22T04:01:18;13.30;99.90
3406;DHT22;10008;48.682;9.016;2023-07-22T04:03:44;13.30;99.90
3406;DHT22;10008;48.682;9.016;2023-07-22T04:06:10;13.30;99.90
3406;DHT22;10008;48.682;9.016;2023-07-22T04:08:36;13.40;99.90
3406;DHT22;10008;48.682;9.016;2023-07-22T04:11:02;13.40;99.90
3406;DHT22;10008;48.682;9.016;2023-07-22T04:13:28;13.40;99.90
3406;DHT22;10008;48.682;9.016;2023-07-22T04:15:54;13.40;99.90
3406;DHT22;10008;48.682;9.016;2023-07-22T04:18:20;13.50;99.90
3406;DHT22;10008;48.682;9.016;2023-07-22T04:20:47;13.50;99.90
3406;DHT22;10008;48.682;9.016;2023-07-22T04:23:16;13.60;99.90
3406;DHT22;10008;48.682;9.016;2023-07-22T04:25:45;13.60;99.90
3406;DHT22;10008;48.682;9.016;2023-07-22T04:28:11;13.60;99.90
3406;DHT22;10008;48.682;9.016;2023-07-22T04:30:37;13.60;99.90
3406;DHT22;10008;48.682;9.016;2023-07-22T04:33:03;13.60;99.90
3406;DHT22;10008;48.682;9.016;2023-07-22T04:35:38;13.80;99.90
3406;DHT22;10008;48.682;9.016;2023-07-22T04:38:04;13.80;99.90
3406;DHT22;10008;48.682;9.016;2023-07-22T04:40:30;13.80;99.90
3406;DHT22;10008;48.682;9.016;2023-07-22T04:42:56;13.80;99.90
3406;DHT22;10008;48.682;9.016;2023-07-22T04:45:22;13.90;99.90
3406;DHT22;10008;48.682;9.016;2023-07-22T04:47:52;13.90;99.90
3406;DHT22;10008;48.682;9.016;2023-07-22T04:50:18;14.00;99.90
3406;DHT22;10008;48.682;9.016;2023-07-22T04:52:47;14.00;99.90
3406;DHT22;10008;48.682;9.016;2023-07-22T04:55:14;14.00;99.90
3406;DHT22;10008;48.682;9.016;2023-07-22T04:57:41;14.10;99.90
3406;DHT22;10008;48.682;9.016;2023-07-22T05:00:12;14.10;99.90
3406;DHT22;10008;48.682;9.016;2023-07-22T05:02:45;14.20;99.90
3406;DHT22;10008;48.682;9.016;2023-07-22T05:05:13;14.20;99.90
3406;DHT22;10008;48.682;9.016;2023-07-22T05:07:38;14.20;99.90
3406;DHT22;10008;48.682;9.016;2023-07-22T05:10:05;14.20;99.90
3406;DHT22;10008;48.682;9.016;2023-07-22T05:12:32;14.30;99.90
3406;DHT22;10008;48.682;9.016;2023-07-22T05:14:58;14.30;99.90
3406;DHT22;10008;48.682;9.016;2023-07-22T05:17:24;14.40;99.90
3406;DHT22;10008;48.682;9.016;2023-07-22T05:19:51;14.50;99.90
3406;DHT22;10008;48.682;9.016;2023-07-22T05:22:16;14.40;99.90
3406;DHT22;10008;48.682;9.016;2023-07-22T05:24:42;14.40;99.90
3406;DHT22;10008;48.682;9.016;2023-07-22T05:27:08;14.50;99.90
3406;DHT22;10008;48.682;9.016;2023-07-22T05:29:34;14.60;99.90
3406;DHT22;10008;48.682;9.016;2023-07-22T05:32:00;14.70;99.90
3406;DHT22;10008;48.682;9.016;2023-07-22T05:34:25;14.80;99.90
3406;DHT22;10008;48.682;9.016;2023-07-22T05:36:51;15.00;99.90
3406;DHT22;10008;48.682;9.016;2023-07-22T05:39:17;15.10;99.90
3406;DHT22;10008;48.682;9.016;2023-07-22T05:41:45;15.20;99.90
3406;DHT22;10008;48.682;9.016;2023-07-22T05:44:11;15.30;99.90
3406;DHT22;10008;48.682;9.016;2023-07-22T05:46:37;15.50;99.90
3406;DHT22;10008;48.682;9.016;2023-07-22T05:49:04;15.60;99.90
3406;DHT22;10008;48.682;9.016;2023-07-22T05:51:29;15.60;99.90
3406;DHT22;10008;48.682;9.016;2023-07-22T05:53:55;15.60;99.90
3406;DHT22;10008;48.682;9.016;2023-07-22T05:56:21;15.70;99.90
3406;DHT22;10008;48.682;9.016;2023-07-22T05:58:47;15.80;99.90
3406;DHT22;10008;48.682;9.016;2023-07-22T06:01:12;16.00;99.90
3406;DHT22;10008;48.682;9.016;2023-07-22T06:03:40;16.10;99.90
3406;DHT22;10008;48.682;9.016;2023-07-22T06:06:06;16.20;99.90
3406;DHT22;10008;48.682;9.016;2023-07-22T06:08:31;16.40;99.90
3406;DHT22;10008;48.682;9.016;2023-07-22T06:10:57;17.30;99.90
3406;DHT22;10008;48.682;9.016;2023-07-22T06:13:23;18.50;99.90
3406;DHT22;10008;48.682;9.016;2023-07-22T06:15:49;19.10;99.90
3406;DHT22;10008;48.682;9.016;2023-07-22T06:18:14;20.00;99.90
3406;DHT22;10008;48.682;9.016;2023-07-22T06:20:40;20.80;99.90
3406;DHT22;10008;48.682;9.016;2023-07-22T06:23:06;21.50;99.90
3406;DHT22;10008;48.682;9.016;2023-07-22T06:25:32;22.00;99.90
3406;DHT22;10008;48.682;9.016;2023-07-22T06:27:57;22.50;99.90
3406;DHT22;10008;48.682;9.016;2023-07-22T06:30:23;22.80;99.70
3406;DHT22;10008;48.682;9.016;2023-07-22T06:32:49;23.30;99.10
3406;DHT22;10008;48.682;9.016;2023-07-22T06:35:14;24.10;97.90
3406;DHT22;10008;48.682;9.016;2023-07-22T06:37:40;24.50;96.50
3406;DHT22;10008;48.682;9.016;2023-07-22T06:40:06;24.00;95.90
3406;DHT22;10008;48.682;9.016;2023-07-22T06:42:32;24.00;96.00
3406;DHT22;10008;48.682;9.016;2023-07-22T06:44:58;24.70;96.30
3406;DHT22;10008;48.682;9.016;2023-07-22T06:47:24;24.80;95.00
3406;DHT22;10008;48.682;9.016;2023-07-22T06:49:50;24.40;95.30
3406;DHT22;10008;48.682;9.016;2023-07-22T06:52:16;24.10;95.40
3406;DHT22;10008;48.682;9.016;2023-07-22T06:54:42;24.00;95.10
3406;DHT22;10008;48.682;9.016;2023-07-22T06:57:08;24.20;94.80
3406;DHT22;10008;48.682;9.016;2023-07-22T06:59:34;24.60;94.80
3406;DHT22;10008;48.682;9.016;2023-07-22T07:02:00;24.80;94.50
3406;DHT22;10008;48.682;9.016;2023-07-22T07:04:26;25.20;93.70
3406;DHT22;10008;48.682;9.016;2023-07-22T07:06:52;25.00;93.30
3406;DHT22;10008;48.682;9.016;2023-07-22T07:09:17;24.50;92.90
3406;DHT22;10008;48.682;9.016;2023-07-22T07:11:44;24.60;92.80
3406;DHT22;10008;48.682;9.016;2023-07-22T07:14:10;24.70;93.10
3406;DHT22;10008;48.682;9.016;2023-07-22T07:16:35;24.50;92.90
3406;DHT22;10008;48.682;9.016;2023-07-22T07:19:01;24.40;93.60
3406;DHT22;10008;48.682;9.016;2023-07-22T07:21:27;24.40;93.50
3406;DHT22;10008;48.682;9.016;2023-07-22T07:23:54;24.50;93.70
3406;DHT22;10008;48.682;9.016;2023-07-22T07:26:20;25.00;93.40
3406;DHT22;10008;48.682;9.016;2023-07-22T07:28:51;24.80;92.20
3406;DHT22;10008;48.682;9.016;2023-07-22T07:31:17;25.00;92.60
3406;DHT22;10008;48.682;9.016;2023-07-22T07:33:43;25.60;92.50
3406;DHT22;10008;48.682;9.016;2023-07-22T07:36:09;25.40;91.70
3406;DHT22;10008;48.682;9.016;2023-07-22T07:38:35;25.30;91.40
3406;DHT22;10008;48.682;9.016;2023-07-22T07:41:05;25.20;91.40
3406;DHT22;10008;48.682;9.016;2023-07-22T07:43:34;24.80;91.80
3406;DHT22;10008;48.682;9.016;2023-07-22T07:46:22;24.50;91.90
3406;DHT22;10008;48.682;9.016;2023-07-22T07:51:15;25.60;92.00
3406;DHT22;10008;48.682;9.016;2023-07-22T07:53:42;26.10;91.30
3406;DHT22;10008;48.682;9.016;2023-07-22T07:56:09;26.50;90.30
3406;DHT22;10008;48.682;9.016;2023-07-22T07:58:36;26.40;87.60
3406;DHT22;10008;48.682;9.016;2023-07-22T08:01:03;26.70;88.10
3406;DHT22;10008;48.682;9.016;2023-07-22T08:03:29;26.20;87.30
3406;DHT22;10008;48.682;9.016;2023-07-22T08:05:55;25.90;87.60
3406;DHT22;10008;48.682;9.016;2023-07-22T08:08:22;26.00;86.50
3406;DHT22;10008;48.682;9.016;2023-07-22T08:10:57;25.90;87.30
3406;DHT22;10008;48.682;9.016;2023-07-22T08:13:22;26.70;87.10
3406;DHT22;10008;48.682;9.016;2023-07-22T08:15:48;26.80;87.00
3406;DHT22;10008;48.682;9.016;2023-07-22T08:18:14;26.70;85.40
3406;DHT22;10008;48.682;9.016;2023-07-22T08:20:40;27.10;84.60
3406;DHT22;10008;48.682;9.016;2023-07-22T08:23:05;27.90;82.40
3406;DHT22;10008;48.682;9.016;2023-07-22T08:25:31;27.70;78.60
3406;DHT22;10008;48.682;9.016;2023-07-22T08:27:57;27.50;79.10
3406;DHT22;10008;48.682;9.016;2023-07-22T08:30:22;27.50;75.80
3406;DHT22;10008;48.682;9.016;2023-07-22T08:32:48;27.40;76.00
3406;DHT22;10008;48.682;9.016;2023-07-22T08:35:14;27.60;77.20
3406;DHT22;10008;48.682;9.016;2023-07-22T08:37:42;27.80;75.10
3406;DHT22;10008;48.682;9.016;2023-07-22T08:40:08;27.90;76.20
3406;DHT22;10008;48.682;9.016;2023-07-22T08:42:35;27.80;72.60
3406;DHT22;10008;48.682;9.016;2023-07-22T08:45:04;27.50;70.60
3406;DHT22;10008;48.682;9.016;2023-07-22T08:47:32;26.20;69.50
3406;DHT22;10008;48.682;9.016;2023-07-22T08:50:01;26.10;74.40
3406;DHT22;10008;48.682;9.016;2023-07-22T08:52:27;26.60;71.20
3406;DHT22;10008;48.682;9.016;2023-07-22T08:54:53;26.20;73.20
3406;DHT22;10008;48.682;9.016;2023-07-22T08:57:20;26.20;73.50
3406;DHT22;10008;48.682;9.016;2023-07-22T08:59:47;25.20;75.00
3406;DHT22;10008;48.682;9.016;2023-07-22T09:02:13;24.40;77.80
3406;DHT22;10008;48.682;9.016;2023-07-22T09:04:40;23.90;80.30
3406;DHT22;10008;48.682;9.016;2023-07-22T09:07:11;23.30;77.80
3406;DHT22;10008;48.682;9.016;2023-07-22T09:09:38;22.70;78.40
3406;DHT22;10008;48.682;9.016;2023-07-22T09:12:04;22.10;80.20
3406;DHT22;10008;48.682;9.016;2023-07-22T09:14:33;22.40;81.80
3406;DHT22;10008;48.682;9.016;2023-07-22T09:16:59;22.40;81.50
3406;DHT22;10008;48.682;9.016;2023-07-22T09:19:25;22.50;83.50
3406;DHT22;10008;48.682;9.016;2023-07-22T09:21:52;22.50;81.40
3406;DHT22;10008;48.682;9.016;2023-07-22T09:24:22;22.70;85.20
3406;DHT22;10008;48.682;9.016;2023-07-22T09:26:49;23.10;81.90
3406;DHT22;10008;48.682;9.016;2023-07-22T09:29:15;22.80;84.70
3406;DHT22;10008;48.682;9.016;2023-07-22T09:31:54;22.90;81.90
3406;DHT22;10008;48.682;9.016;2023-07-22T09:34:19;23.20;79.70
3406;DHT22;10008;48.682;9.016;2023-07-22T09:36:56;23.10;80.70
3406;DHT22;10008;48.682;9.016;2023-07-22T09:39:22;22.90;80.30
3406;DHT22;10008;48.682;9.016;2023-07-22T09:41:48;22.90;79.20
3406;DHT22;10008;48.682;9.016;2023-07-22T09:44:14;22.60;81.10
3406;DHT22;10008;48.682;9.016;2023-07-22T09:46:40;22.40;82.30
3406;DHT22;10008;48.682;9.016;2023-07-22T09:49:09;22.50;82.90
3406;DHT22;10008;48.682;9.016;2023-07-22T09:51:36;22.60;82.00
3406;DHT22;10008;48.682;9.016;2023-07-22T09:54:03;22.60;77.00
3406;DHT22;10008;48.682;9.016;2023-07-22T09:56:30;22.50;82.70
3406;DHT22;10008;48.682;9.016;2023-07-22T09:59:04;23.10;78.80
3406;DHT22;10008;48.682;9.016;2023-07-22T10:01:30;24.00;80.60
3406;DHT22;10008;48.682;9.016;2023-07-22T10:03:56;24.70;77.90
3406;DHT22;10008;48.682;9.016;2023-07-22T10:06:33;25.00;75.40
3406;DHT22;10008;48.682;9.016;2023-07-22T10:09:04;24.70;75.50
3406;DHT22;10008;48.682;9.016;2023-07-22T10:11:34;24.60;75.70
3406;DHT22;10008;48.682;9.016;2023-07-22T10:14:03;24.40;76.80
3406;DHT22;10008;48.682;9.016;2023-07-22T10:16:30;24.40;77.40
3406;DHT22;10008;48.682;9.016;2023-07-22T10:18:57;24.20;79.80
3406;DHT22;10008;48.682;9.016;2023-07-22T10:21:24;24.20;78.30
3406;DHT22;10008;48.682;9.016;2023-07-22T10:23:51;23.90;75.80
3406;DHT22;10008;48.682;9.016;2023-07-22T10:26:18;24.00;78.30
3406;DHT22;10008;48.682;9.016;2023-07-22T10:28:47;24.00;80.80
3406;DHT22;10008;48.682;9.016;2023-07-22T10:31:14;23.90;80.50
3406;DHT22;10008;48.682;9.016;2023-07-22T10:33:47;23.90;78.20
3406;DHT22;10008;48.682;9.016;2023-07-22T10:36:17;25.20;78.10
3406;DHT22;10008;48.682;9.016;2023-07-22T10:38:43;25.50;76.50
3406;DHT22;10008;48.682;9.016;2023-07-22T10:41:14;25.30;78.30
3406;DHT22;10008;48.682;9.016;2023-07-22T10:43:42;25.60;71.80
3406;DHT22;10008;48.682;9.016;2023-07-22T10:46:19;25.10;71.70
3406;DHT22;10008;48.682;9.016;2023-07-22T10:49:13;24.90;74.30
3406;DHT22;10008;48.682;9.016;2023-07-22T10:51:39;24.80;71.60
3406;DHT22;10008;48.682;9.016;2023-07-22T10:54:15;24.60;74.40
3406;DHT22;10008;48.682;9.016;2023-07-22T10:56:56;24.50;78.30
3406;DHT22;10008;48.682;9.016;2023-07-22T10:59:28;24.40;73.60
3406;DHT22;10008;48.682;9.016;2023-07-22T11:01:54;24.50;76.00
3406;DHT22;10008;48.682;9.016;2023-07-22T11:04:24;24.50;73.90
3406;DHT22;10008;48.682;9.016;2023-07-22T11:07:00;24.70;74.30
3406;DHT22;10008;48.682;9.016;2023-07-22T11:11:59;23.70;81.20
3406;DHT22;10008;48.682;9.016;2023-07-22T11:14:27;23.10;84.10
3406;DHT22;10008;48.682;9.016;2023-07-22T11:16:53;22.90;84.70
3406;DHT22;10008;48.682;9.016;2023-07-22T11:19:21;23.70;85.10
3406;DHT22;10008;48.682;9.016;2023-07-22T11:21:48;24.40;81.20
3406;DHT22;10008;48.682;9.016;2023-07-22T11:24:18;24.60;78.50
3406;DHT22;10008;48.682;9.016;2023-07-22T11:26:45;25.00;80.70
3406;DHT22;10008;48.682;9.016;2023-07-22T11:29:12;25.20;80.70
3406;DHT22;10008;48.682;9.016;2023-07-22T11:31:42;25.60;78.30
3406;DHT22;10008;48.682;9.016;2023-07-22T11:34:10;26.70;76.90
3406;DHT22;10008;48.682;9.016;2023-07-22T11:36:36;27.70;74.10
3406;DHT22;10008;48.682;9.016;2023-07-22T11:39:04;27.90;72.40
3406;DHT22;10008;48.682;9.016;2023-07-22T11:41:30;28.10;71.70
3406;DHT22;10008;48.682;9.016;2023-07-22T11:43:57;28.20;69.90
3406;DHT22;10008;48.682;9.016;2023-07-22T11:46:24;27.60;68.10
3406;DHT22;10008;48.682;9.016;2023-07-22T11:48:51;27.10;71.50
3406;DHT22;10008;48.682;9.016;2023-07-22T11:51:21;26.40;72.50
3406;DHT22;10008;48.682;9.016;2023-07-22T11:53:49;25.90;71.90
3406;DHT22;10008;48.682;9.016;2023-07-22T11:56:22;25.80;75.70
3406;DHT22;10008;48.682;9.016;2023-07-22T11:58:52;25.90;76.30
3406;DHT22;10008;48.682;9.016;2023-07-22T12:01:20;25.90;73.90
3406;DHT22;10008;48.682;9.016;2023-07-22T12:03:46;26.50;75.40
3406;DHT22;10008;48.682;9.016;2023-07-22T12:06:12;26.80;72.50
3406;DHT22;10008;48.682;9.016;2023-07-22T12:08:48;26.60;73.30
3406;DHT22;10008;48.682;9.016;2023-07-22T12:11:18;26.40;75.00
3406;DHT22;10008;48.682;9.016;2023-07-22T12:13:45;27.30;71.20
3406;DHT22;10008;48.682;9.016;2023-07-22T12:16:24;27.70;66.90
3406;DHT22;10008;48.682;9.016;2023-07-22T12:18:50;27.90;69.60
3406;DHT22;10008;48.682;9.016;2023-07-22T12:21:19;27.20;69.50
3406;DHT22;10008;48.682;9.016;2023-07-22T12:23:45;26.10;71.60
3406;DHT22;10008;48.682;9.016;2023-07-22T12:26:11;25.60;73.30
3406;DHT22;10008;48.682;9.016;2023-07-22T12:28:37;25.60;74.60
3406;DHT22;10008;48.682;9.016;2023-07-22T12:31:03;26.50;74.80
3406;DHT22;10008;48.682;9.016;2023-07-22T12:33:28;27.00;70.10
3406;DHT22;10008;48.682;9.016;2023-07-22T12:35:56;27.50;70.70
3406;DHT22;10008;48.682;9.016;2023-07-22T12:38:22;27.40;70.60
3406;DHT22;10008;48.682;9.016;2023-07-22T12:40:48;27.30;71.50
3406;DHT22;10008;48.682;9.016;2023-07-22T12:43:13;27.80;68.40
3406;DHT22;10008;48.682;9.016;2023-07-22T12:45:39;27.70;68.40
3406;DHT22;10008;48.682;9.016;2023-07-22T12:48:05;27.60;67.80
3406;DHT22;10008;48.682;9.016;2023-07-22T12:50:32;27.90;71.30
3406;DHT22;10008;48.682;9.016;2023-07-22T12:52:58;27.80;66.70
3406;DHT22;10008;48.682;9.016;2023-07-22T12:55:24;28.00;65.40
3406;DHT22;10008;48.682;9.016;2023-07-22T12:57:50;28.30;63.40
3406;DHT22;10008;48.682;9.016;2023-07-22T13:00:16;28.70;65.70
3406;DHT22;10008;48.682;9.016;2023-07-22T13:02:41;28.90;64.10
3406;DHT22;10008;48.682;9.016;2023-07-22T13:05:07;29.00;64.50
3406;DHT22;10008;48.682;9.016;2023-07-22T13:07:33;28.80;65.60
3406;DHT22;10008;48.682;9.016;2023-07-22T13:09:59;27.70;63.00
3406;DHT22;10008;48.682;9.016;2023-07-22T13:12:27;27.20;65.90
3406;DHT22;10008;48.682;9.016;2023-07-22T13:14:53;26.50;67.40
3406;DHT22;10008;48.682;9.016;2023-07-22T13:17:19;26.70;67.40
3406;DHT22;10008;48.682;9.016;2023-07-22T13:19:45;27.00;69.30
3406;DHT22;10008;48.682;9.016;2023-07-22T13:22:11;27.50;67.10
3406;DHT22;10008;48.682;9.016;2023-07-22T13:24:37;27.20;66.40
3406;DHT22;10008;48.682;9.016;2023-07-22T13:27:03;27.00;69.30
3406;DHT22;10008;48.682;9.016;2023-07-22T13:29:29;26.90;68.80
3406;DHT22;10008;48.682;9.016;2023-07-22T13:31:56;25.90;69.50
3406;DHT22;10008;48.682;9.016;2023-07-22T13:34:22;25.60;71.70
3406;DHT22;10008;48.682;9.016;2023-07-22T13:36:48;25.10;72.10
3406;DHT22;10008;48.682;9.016;2023-07-22T13:39:14;24.90;72.50
3406;DHT22;10008;48.682;9.016;2023-07-22T13:41:39;25.30;69.80
3406;DHT22;10008;48.682;9.016;2023-07-22T13:44:05;26.40;68.20
3406;DHT22;10008;48.682;9.016;2023-07-22T13:46:31;26.90;70.20
3406;DHT22;10008;48.682;9.016;2023-07-22T13:48:57;26.60;70.10
3406;DHT22;10008;48.682;9.016;2023-07-22T13:51:23;25.90;69.60
3406;DHT22;10008;48.682;9.016;2023-07-22T13:53:49;25.30;71.10
3406;DHT22;10008;48.682;9.016;2023-07-22T13:56:17;24.80;74.00
3406;DHT22;10008;48.682;9.016;2023-07-22T13:58:43;25.20;74.60
3406;DHT22;10008;48.682;9.016;2023-07-22T14:01:09;25.70;70.90
3406;DHT22;10008;48.682;9.016;2023-07-22T14:03:35;25.70;70.30
3406;DHT22;10008;48.682;9.016;2023-07-22T14:06:01;25.80;69.70
3406;DHT22;10008;48.682;9.016;2023-07-22T14:08:26;25.40;72.20
3406;DHT22;10008;48.682;9.016;2023-07-22T14:10:53;25.10;72.20
3406;DHT22;10008;48.682;9.016;2023-07-22T14:13:18;25.00;73.80
3406;DHT22;10008;48.682;9.016;2023-07-22T14:15:44;24.90;74.50
3406;DHT22;10008;48.682;9.016;2023-07-22T14:18:10;24.80;72.40
3406;DHT22;10008;48.682;9.016;2023-07-22T14:20:35;24.90;71.50
3406;DHT22;10008;48.682;9.016;2023-07-22T14:23:01;24.90;72.90
3406;DHT22;10008;48.682;9.016;2023-07-22T14:25:29;25.00;73.60
3406;DHT22;10008;48.682;9.016;2023-07-22T14:27:54;24.80;73.60
3406;DHT22;10008;48.682;9.016;2023-07-22T14:30:21;25.00;73.90
3406;DHT22;10008;48.682;9.016;2023-07-22T14:32:47;25.20;73.60
3406;DHT22;10008;48.682;9.016;2023-07-22T14:35:12;25.20;72.60
3406;DHT22;10008;48.682;9.016;2023-07-22T14:37:38;25.30;73.20
3406;DHT22;10008;48.682;9.016;2023-07-22T14:40:04;25.10;74.90
3406;DHT22;10008;48.682;9.016;2023-07-22T14:42:31;25.20;73.10
3406;DHT22;10008;48.682;9.016;2023-07-22T14:44:56;25.50;72.20
3406;DHT22;10008;48.682;9.016;2023-07-22T14:47:22;25.50;67.90
3406;DHT22;10008;48.682;9.016;2023-07-22T14:49:48;25.50;70.40
3406;DHT22;10008;48.682;9.016;2023-07-22T14:52:13;25.50;71.70
3406;DHT22;10008;48.682;9.016;2023-07-22T14:54:39;25.20;72.60
3406;DHT22;10008;48.682;9.016;2023-07-22T14:57:05;25.00;75.20
3406;DHT22;10008;48.682;9.016;2023-07-22T14:59:31;24.60;73.00
3406;DHT22;10008;48.682;9.016;2023-07-22T15:01:56;24.30;73.00
3406;DHT22;10008;48.682;9.016;2023-07-22T15:04:23;24.10;71.60
3406;DHT22;10008;48.682;9.016;2023-07-22T15:06:50;24.10;73.70
3406;DHT22;10008;48.682;9.016;2023-07-22T15:09:15;24.20;74.60
3406;DHT22;10008;48.682;9.016;2023-07-22T15:11:41;24.30;75.10
3406;DHT22;10008;48.682;9.016;2023-07-22T15:14:07;24.30;75.00
3406;DHT22;10008;48.682;9.016;2023-07-22T15:16:33;24.30;75.20
3406;DHT22;10008;48.682;9.016;2023-07-22T15:18:59;24.30;73.10
3406;DHT22;10008;48.682;9.016;2023-07-22T15:21:25;24.50;75.40
3406;DHT22;10008;48.682;9.016;2023-07-22T15:23:50;24.70;73.50
3406;DHT22;10008;48.682;9.016;2023-07-22T15:26:16;24.80;74.40
3406;DHT22;10008;48.682;9.016;2023-07-22T15:28:42;24.70;74.80
3406;DHT22;10008;48.682;9.016;2023-07-22T15:31:08;24.80;75.60
3406;DHT22;10008;48.682;9.016;2023-07-22T15:33:36;24.60;71.40
3406;DHT22;10008;48.682;9.016;2023-07-22T15:36:03;24.70;72.40
3406;DHT22;10008;48.682;9.016;2023-07-22T15:38:28;24.70;74.90
3406;DHT22;10008;48.682;9.016;2023-07-22T15:40:54;24.50;73.90
3406;DHT22;10008;48.682;9.016;2023-07-22T15:43:20;24.30;74.50
3406;DHT22;10008;48.682;9.016;2023-07-22T15:45:45;24.10;74.60
3406;DHT22;10008;48.682;9.016;2023-07-22T15:48:11;23.80;73.70